Time;durP1;ratioP1;P1;durP2;ratioP2;P2;SDS_P1;SDS_P2;PMS_P1;PMS_P2;Temp;Humidity;BMP_temperature;BMP_pressure;BME280_temperature;BME280_humidity;BME280_pressure;Samples;Min_cycle;Max_cycle;Signal;HPM_P1;HPM_P2
2022/01/28 00:02:15;;;;;;;;;;;;;;;5.29;79.71;101794.34;5019271;28;19924;-78
2022/01/28 00:05:21;;;;;;;;;;;;;;;5.31;79.79;101790.03;5031428;28;19943;-77
2022/01/28 00:08:24;;;;;;;;;;;;;;;5.32;79.64;101794.34;5018587;28;19920;-77
2022/01/28 00:11:27;;;;;;;;;;;;;;;5.28;78.77;101790.06;5029731;28;19920;-77
2022/01/28 00:14:56;;;;;;;;;;;;;;;5.31;78.72;101800.41;5031484;28;19919;-77
2022/01/28 00:38:30;;;;;;;;;;;;;;;5.10;80.19;101868.00;5030914;28;20411;-78
2022/01/28 00:41:33;;;;;;;;;;;;;;;5.11;80.68;101859.38;5029318;28;19970;-78
2022/01/28 00:44:37;;;;;;;;;;;;;;;4.97;82.08;101863.78;5018445;28;19980;-78
2022/01/28 00:47:40;;;;;;;;;;;;;;;5.10;82.23;101873.19;5030046;28;19998;-78
2022/01/28 00:50:43;;;;;;;;;;;;;;;5.11;82.54;101886.16;5031511;28;19919;-78
2022/01/28 00:53:47;;;;;;;;;;;;;;;4.94;82.07;101879.38;5018835;28;19923;-78
2022/01/28 00:56:50;;;;;;;;;;;;;;;4.82;81.69;101890.72;5018105;28;19943;-78
2022/01/28 00:59:53;;;;;;;;;;;;;;;4.88;79.25;101896.72;5030451;28;20394;-77
2022/01/28 01:02:57;;;;;;;;;;;;;;;4.93;80.95;101899.25;5030166;28;19924;-77
2022/01/28 01:06:00;;;;;;;;;;;;;;;4.94;81.26;101905.28;5030645;28;19955;-78
2022/01/28 01:09:04;;;;;;;;;;;;;;;4.92;77.22;101913.09;5017862;28;19920;-77
2022/01/28 01:12:07;;;;;;;;;;;;;;;5.05;75.26;101917.31;5029162;28;19982;-77
2022/01/28 01:15:13;;;;;;;;;;;;;;;5.12;75.83;101920.72;5018446;28;19986;-77
2022/01/28 01:18:23;;;;;;;;;;;;;;;5.02;74.89;101914.75;5017331;28;19975;-77
2022/01/28 01:21:28;;;;;;;;;;;;;;;5.02;74.84;101917.34;5017005;28;19928;-77
2022/01/28 01:24:36;;;;;;;;;;;;;;;5.04;75.52;101912.13;5013974;28;20018;-77
2022/01/28 01:27:40;;;;;;;;;;;;;;;5.04;74.53;101919.91;5027778;28;19920;-77
2022/01/28 01:30:44;;;;;;;;;;;;;;;4.99;74.27;101906.97;5027122;28;19963;-78
2022/01/28 01:36:54;;;;;;;;;;;;;;;4.88;75.34;101906.19;5028956;28;19940;-78
2022/01/28 01:39:57;;;;;;;;;;;;;;;4.87;76.20;101913.09;5028465;28;19943;-77
2022/01/28 01:43:29;;;;;;;;;;;;;;;4.87;76.49;101918.28;5017161;28;19928;-78
2022/01/28 01:46:58;;;;;;;;;;;;;;;4.66;78.24;101924.47;5029071;28;19962;-78
2022/01/28 01:53:27;;;;;;;;;;;;;;;4.77;78.65;101927.00;5028837;28;19983;-78
2022/01/28 01:56:32;;;;;;;;;;;;;;;4.63;78.96;101934.00;5029759;28;19924;-77
2022/01/28 01:59:37;;;;;;;;;;;;;;;4.73;79.22;101935.66;5017234;28;19924;-77
2022/01/28 02:02:40;;;;;;;;;;;;;;;4.85;78.65;101935.59;5029636;28;19924;-78
2022/01/28 02:05:44;;;;;;;;;;;;;;;4.96;76.70;101932.94;5027539;28;19966;-77
2022/01/28 02:08:47;;;;;;;;;;;;;;;4.94;77.25;101937.25;5027255;28;19920;-77
2022/01/28 02:11:53;;;;;;;;;;;;;;;4.90;78.50;101946.78;5010759;28;20014;-77
2022/01/28 02:14:57;;;;;;;;;;;;;;;4.90;78.26;101944.19;4997677;28;19921;-77
2022/01/28 02:18:00;;;;;;;;;;;;;;;4.90;77.66;101959.75;5007818;28;19920;-77
2022/01/28 02:21:10;;;;;;;;;;;;;;;4.85;77.59;101952.84;5029224;28;19936;-78
2022/01/28 02:24:17;;;;;;;;;;;;;;;4.80;77.44;101959.81;5026113;28;19924;-77
2022/01/28 02:27:20;;;;;;;;;;;;;;;4.71;76.79;101950.34;5028632;28;19939;-78
2022/01/28 02:30:23;;;;;;;;;;;;;;;4.62;76.62;101955.56;5028750;28;19920;-78
2022/01/28 02:33:27;;;;;;;;;;;;;;;4.73;74.55;101956.41;5017005;28;20004;-77
2022/01/28 02:36:31;;;;;;;;;;;;;;;4.66;74.66;101958.16;5029143;28;19928;-77
2022/01/28 02:39:34;;;;;;;;;;;;;;;4.68;73.90;101942.59;5028476;28;19983;-77
2022/01/28 02:46:42;;;;;;;;;;;;;;;4.65;72.56;101952.97;5006435;28;19967;-77
2022/01/28 02:49:46;;;;;;;;;;;;;;;4.60;73.04;101960.78;5016596;28;19959;-77
2022/01/28 02:53:02;;;;;;;;;;;;;;;4.67;73.74;101961.59;5017275;28;19923;-77
2022/01/28 02:56:14;;;;;;;;;;;;;;;4.61;73.91;101964.22;5016278;28;20382;-77
2022/01/28 02:59:18;;;;;;;;;;;;;;;4.63;72.91;101965.09;5028214;28;19924;-78
2022/01/28 03:02:21;;;;;;;;;;;;;;;4.69;73.03;101965.06;5032385;28;19967;-77
2022/01/28 03:05:34;;;;;;;;;;;;;;;4.70;71.76;101986.66;5009094;28;19967;-77
2022/01/28 03:08:37;;;;;;;;;;;;;;;4.77;72.34;101984.00;5032446;28;20323;-77
2022/01/28 03:18:10;;;;;;;;;;;;;;;4.77;71.48;101989.19;5028272;28;19959;-77
2022/01/28 03:21:54;;;;;;;;;;;;;;;4.62;71.58;102009.97;4677013;28;10000935;-78
2022/01/28 03:24:59;;;;;;;;;;;;;;;4.64;71.15;102008.25;4998412;28;19933;-78
2022/01/28 03:28:02;;;;;;;;;;;;;;;4.69;71.14;102014.28;4997088;28;19923;-77
2022/01/28 03:31:11;;;;;;;;;;;;;;;4.71;70.75;102002.16;5028999;28;19944;-77
2022/01/28 03:34:15;;;;;;;;;;;;;;;4.76;72.06;102017.72;5006944;28;19924;-77
2022/01/28 03:37:19;;;;;;;;;;;;;;;4.73;71.21;102018.59;5006514;28;19999;-78
2022/01/28 03:40:22;;;;;;;;;;;;;;;4.71;72.50;102029.81;5019662;28;19923;-77
2022/01/28 03:43:27;;;;;;;;;;;;;;;4.81;72.81;102034.09;5004048;28;19925;-77
2022/01/28 03:46:31;;;;;;;;;;;;;;;4.64;72.70;102034.16;5027752;28;19927;-77
2022/01/28 03:49:37;;;;;;;;;;;;;;;4.64;72.53;102039.34;5027858;28;20373;-77
2022/01/28 03:52:43;;;;;;;;;;;;;;;4.72;73.50;102065.22;5027655;28;20253;-78
2022/01/28 03:55:47;;;;;;;;;;;;;;;4.73;72.60;102067.81;5005852;28;19967;-77
2022/01/28 03:58:52;;;;;;;;;;;;;;;4.70;74.49;102080.78;5027679;28;20012;-77
2022/01/28 04:01:59;;;;;;;;;;;;;;;4.65;72.37;102073.00;5028347;28;19959;-77
2022/01/28 04:11:26;;;;;;;;;;;;;;;4.71;71.68;102079.91;5029495;28;19924;-77
2022/01/28 04:12:03;;;;;;;;;;;;;;;4.85;72.00;102083.31;5027260;28;19928;-77
2022/01/28 04:18:14;;;;;;;;;;;;;;;4.80;72.53;102087.66;5027813;28;19924;-77
2022/01/28 04:21:21;;;;;;;;;;;;;;;4.74;72.60;102097.19;5028428;28;19924;-78
2022/01/28 04:24:25;;;;;;;;;;;;;;;4.70;73.09;102105.84;5019402;28;19927;-78
2022/01/28 04:27:30;;;;;;;;;;;;;;;4.76;72.72;102103.22;5014952;28;19920;-77
2022/01/28 04:30:35;;;;;;;;;;;;;;;4.83;72.75;102102.34;5027133;28;20395;-78
2022/01/28 04:33:39;;;;;;;;;;;;;;;4.71;73.85;102115.31;5004210;28;20391;-78
2022/01/28 04:43:37;;;;;;;;;;;;;;;4.84;72.97;102133.41;5027585;28;19928;-77
2022/01/28 04:46:58;;;;;;;;;;;;;;;4.97;73.09;102141.16;5026814;28;20042;-77
2022/01/28 05:28:36;;;;;;;;;;;;;;;4.90;72.29;102197.34;5020424;28;19919;-77
2022/01/28 05:31:39;;;;;;;;;;;;;;;4.80;72.96;102211.19;4986365;28;19920;-77
2022/01/28 05:34:43;;;;;;;;;;;;;;;4.85;73.30;102225.88;4997667;28;20008;-77
2022/01/28 05:37:46;;;;;;;;;;;;;;;4.77;72.35;102206.88;4996626;28;19960;-77
2022/01/28 05:40:49;;;;;;;;;;;;;;;4.70;72.89;102205.16;5002940;28;19923;-78
2022/01/28 05:43:53;;;;;;;;;;;;;;;4.78;72.78;102215.50;5028005;28;19959;-78
2022/01/28 05:47:01;;;;;;;;;;;;;;;4.72;73.40;102203.41;5005122;28;19920;-78
2022/01/28 05:50:05;;;;;;;;;;;;;;;4.75;73.75;102211.19;5016876;28;19982;-77
2022/01/28 05:53:08;;;;;;;;;;;;;;;4.69;73.24;102208.63;5017072;28;19939;-78
2022/01/28 05:56:12;;;;;;;;;;;;;;;4.60;74.28;102221.56;5016812;28;20512;-77
2022/01/28 05:59:16;;;;;;;;;;;;;;;4.59;73.41;102222.41;5029616;28;19920;-78
2022/01/28 06:02:20;;;;;;;;;;;;;;;4.75;72.88;102228.47;5029802;28;19955;-78
2022/01/28 06:05:29;;;;;;;;;;;;;;;4.72;74.33;102224.13;4998622;28;19936;-78
2022/01/28 06:08:34;;;;;;;;;;;;;;;4.92;74.14;102233.66;4997585;28;19921;-78
2022/01/28 06:11:38;;;;;;;;;;;;;;;5.05;73.60;102230.16;4980056;28;19976;-78
2022/01/28 06:14:42;;;;;;;;;;;;;;;5.07;73.55;102236.19;4990099;28;19936;-78
2022/01/28 06:17:45;;;;;;;;;;;;;;;4.93;74.69;102248.31;4977416;28;20276;-78
2022/01/28 06:20:50;;;;;;;;;;;;;;;4.94;74.09;102243.13;4988507;28;20040;-78
2022/01/28 06:24:17;;;;;;;;;;;;;;;4.94;74.17;102257.81;4970789;28;19980;-77
2022/01/28 06:27:22;;;;;;;;;;;;;;;4.93;74.41;102259.53;4990115;28;19919;-77
2022/01/28 06:30:28;;;;;;;;;;;;;;;5.05;74.11;102261.28;4990163;28;20368;-77
2022/01/28 06:33:37;;;;;;;;;;;;;;;5.00;74.85;102270.78;4979872;28;19921;-78
2022/01/28 06:36:40;;;;;;;;;;;;;;;4.94;74.30;102266.44;5012916;28;19920;-78
2022/01/28 06:39:43;;;;;;;;;;;;;;;4.92;72.47;102282.91;5018937;28;20028;-78
2022/01/28 06:42:47;;;;;;;;;;;;;;;5.05;73.10;102282.88;5019308;28;20019;-78
2022/01/28 06:45:50;;;;;;;;;;;;;;;5.13;73.94;102301.84;5019270;28;19967;-78
2022/01/28 06:48:54;;;;;;;;;;;;;;;4.87;72.58;102296.69;5019901;28;19980;-78
2022/01/28 06:51:57;;;;;;;;;;;;;;;4.92;74.23;102306.22;5032441;28;19923;-78
2022/01/28 06:55:01;;;;;;;;;;;;;;;4.83;75.94;102318.31;4996174;28;19925;-78
2022/01/28 06:58:05;;;;;;;;;;;;;;;4.74;75.90;102309.66;5011664;28;19979;-78
2022/01/28 07:01:09;;;;;;;;;;;;;;;4.88;76.47;102305.34;4998139;28;20430;-78
2022/01/28 07:04:16;;;;;;;;;;;;;;;4.60;77.08;102307.06;4999287;28;19924;-78
2022/01/28 07:07:22;;;;;;;;;;;;;;;4.54;75.56;102307.06;5011503;28;19959;-78
2022/01/28 07:10:25;;;;;;;;;;;;;;;4.69;73.84;102325.22;4980229;28;20012;-78
2022/01/28 07:13:28;;;;;;;;;;;;;;;4.72;73.53;102324.34;4980414;28;20009;-78
2022/01/28 07:16:36;;;;;;;;;;;;;;;4.78;72.77;102326.94;4992755;28;20495;-78
2022/01/28 07:19:41;;;;;;;;;;;;;;;4.83;72.92;102335.59;4980755;28;20279;-77
2022/01/28 07:22:45;;;;;;;;;;;;;;;4.71;74.49;102341.63;5019580;28;19971;-77
2022/01/28 07:25:48;;;;;;;;;;;;;;;4.69;73.38;102338.19;5017706;28;19936;-78
2022/01/28 07:28:53;;;;;;;;;;;;;;;4.73;73.76;102326.94;5018435;28;20436;-78
2022/01/28 07:31:56;;;;;;;;;;;;;;;4.78;73.45;102345.94;5011236;28;20364;-78
2022/01/28 07:34:59;;;;;;;;;;;;;;;4.94;73.74;102358.91;4987855;28;20003;-78
2022/01/28 07:38:03;;;;;;;;;;;;;;;4.89;72.61;102357.19;5014368;28;19940;-78
2022/01/28 07:41:06;;;;;;;;;;;;;;;5.09;72.97;102359.78;5012955;28;19921;-77
2022/01/28 07:44:10;;;;;;;;;;;;;;;5.05;73.16;102359.78;5000019;28;19977;-77
2022/01/28 07:47:13;;;;;;;;;;;;;;;4.84;72.77;102353.72;4999090;28;20008;-77
2022/01/28 07:50:16;;;;;;;;;;;;;;;4.93;73.40;102354.59;4998628;28;19940;-78
2022/01/28 07:58:03;;;;;;;;;;;;;;;4.97;72.68;102380.50;5002227;28;20028;-78
2022/01/28 08:01:06;;;;;;;;;;;;;;;4.77;73.21;102369.28;5011913;28;19921;-78
2022/01/28 08:04:10;;;;;;;;;;;;;;;4.80;72.77;102364.94;5012115;28;20288;-76
2022/01/28 08:07:13;;;;;;;;;;;;;;;4.68;72.64;102351.97;4988149;28;20364;-78
2022/01/28 08:10:17;;;;;;;;;;;;;;;4.64;72.87;102355.44;4999913;28;19968;-77
2022/01/28 08:13:20;;;;;;;;;;;;;;;4.52;72.56;102356.25;4999702;28;19975;-78
2022/01/28 08:16:23;;;;;;;;;;;;;;;4.53;72.10;102359.72;5011366;28;19959;-77
2022/01/28 08:19:27;;;;;;;;;;;;;;;4.62;72.38;102370.09;5010937;28;19920;-78
2022/01/28 08:22:30;;;;;;;;;;;;;;;4.70;71.44;102364.94;5012006;28;20367;-78
2022/01/28 08:25:34;;;;;;;;;;;;;;;4.82;71.94;102352.00;5012273;28;20008;-78
2022/01/28 08:28:41;;;;;;;;;;;;;;;4.81;71.19;102369.25;5012296;28;20324;-78
2022/01/28 08:31:44;;;;;;;;;;;;;;;4.83;71.20;102377.91;4999024;28;19958;-78
2022/01/28 08:34:48;;;;;;;;;;;;;;;4.79;71.09;102388.28;5011027;28;20011;-77
2022/01/28 08:37:51;;;;;;;;;;;;;;;4.97;71.93;102385.69;5010633;28;19920;-77
2022/01/28 08:40:56;;;;;;;;;;;;;;;5.16;71.52;102396.09;5011199;28;19924;-78
2022/01/28 08:44:00;;;;;;;;;;;;;;;5.21;71.63;102395.22;4999185;28;19944;-78
2022/01/28 08:47:03;;;;;;;;;;;;;;;5.32;71.04;102393.47;4988163;28;19925;-78
2022/01/28 08:50:07;;;;;;;;;;;;;;;5.16;70.02;102386.56;4998023;28;20556;-77
2022/01/28 08:53:10;;;;;;;;;;;;;;;5.47;69.84;102396.94;4985690;28;19920;-79
2022/01/28 08:56:14;;;;;;;;;;;;;;;5.59;70.94;102415.09;4986657;28;19940;-78
2022/01/28 08:59:17;;;;;;;;;;;;;;;5.07;70.75;102438.44;4997773;28;19964;-82
2022/01/28 09:02:21;;;;;;;;;;;;;;;5.03;71.82;102428.91;4987343;28;20129;-78
2022/01/28 09:05:25;;;;;;;;;;;;;;;4.73;73.22;102428.00;4999085;28;19920;-78
2022/01/28 09:08:30;;;;;;;;;;;;;;;4.42;75.71;102429.63;4987014;28;19920;-78
2022/01/28 09:15:03;;;;;;;;;;;;;;;;;;;;;
2022/01/28 09:18:53;;;;;;;;;;;;;;;4.50;77.03;102442.59;5016771;23;19948;-77
2022/01/28 09:21:56;;;;;;;;;;;;;;;4.75;77.75;102451.31;4998594;28;19968;-77
2022/01/28 09:25:00;;;;;;;;;;;;;;;4.94;77.40;102465.19;5030587;28;19920;-77
2022/01/28 09:28:04;;;;;;;;;;;;;;;5.16;76.39;102451.41;5018462;28;19920;-78
2022/01/28 09:31:07;;;;;;;;;;;;;;;5.21;76.46;102461.81;5006446;28;19952;-77
2022/01/28 09:34:10;;;;;;;;;;;;;;;5.08;76.39;102466.09;5030540;28;20319;-77
2022/01/28 09:37:14;;;;;;;;;;;;;;;4.90;76.84;102462.59;5017829;28;19919;-78
2022/01/28 09:40:20;;;;;;;;;;;;;;;4.71;78.45;102453.03;5029601;28;20004;-78
2022/01/28 09:43:25;;;;;;;;;;;;;;;4.70;77.32;102456.50;5017884;28;20055;-78
2022/01/28 09:46:28;;;;;;;;;;;;;;;4.97;77.23;102452.25;5029578;28;19970;-78
2022/01/28 09:49:32;;;;;;;;;;;;;;;5.17;77.60;102447.97;5017042;28;19942;-77
2022/01/28 09:52:35;;;;;;;;;;;;;;;5.28;76.30;102453.16;5029231;28;19923;-77
2022/01/28 09:55:39;;;;;;;;;;;;;;;5.44;75.41;102462.66;5016294;28;19963;-78
2022/01/28 09:58:42;;;;;;;;;;;;;;;5.59;75.26;102465.25;5016862;28;20055;-78
2022/01/28 10:01:53;;;;;;;;;;;;;;;5.24;75.34;102467.84;5016839;28;19966;-78
2022/01/28 10:04:56;;;;;;;;;;;;;;;5.19;74.80;102469.56;5029794;28;20012;-77
2022/01/28 10:08:19;;;;;;;;;;;;;;;5.01;74.07;102464.34;5030447;28;19959;-78
2022/01/28 10:11:22;;;;;;;;;;;;;;;5.04;73.77;102469.53;5021204;28;19967;-77
2022/01/28 10:14:28;;;;;;;;;;;;;;;5.24;73.58;102473.03;5020808;28;19920;-77
2022/01/28 10:17:54;;;;;;;;;;;;;;;5.16;72.26;102469.56;5021641;28;19924;-78
2022/01/28 10:20:58;;;;;;;;;;;;;;;5.20;71.60;102473.91;5002149;28;19925;-77
2022/01/28 10:24:01;;;;;;;;;;;;;;;5.23;71.85;102484.28;5013877;28;19967;-77
2022/01/28 10:27:10;;;;;;;;;;;;;;;5.32;71.77;102481.69;5000745;28;20076;-78
2022/01/28 10:30:18;;;;;;;;;;;;;;;5.22;70.55;102474.75;4984456;28;19920;-77
2022/01/28 10:33:25;;;;;;;;;;;;;;;5.27;69.70;102479.97;5012861;28;19960;-77
2022/01/28 10:36:28;;;;;;;;;;;;;;;5.38;71.17;102474.78;5000193;28;20117;-78
2022/01/28 10:39:31;;;;;;;;;;;;;;;5.59;67.42;102475.66;5013591;28;20521;-78
2022/01/28 10:42:36;;;;;;;;;;;;;;;5.64;66.14;102472.16;5013656;28;19920;-77
2022/01/28 10:45:41;;;;;;;;;;;;;;;5.71;66.04;102473.88;5005230;28;19940;-77
2022/01/28 10:48:52;;;;;;;;;;;;;;;5.51;65.50;102479.09;4994690;28;20035;-78
2022/01/28 10:52:02;;;;;;;;;;;;;;;5.47;65.71;102469.59;4994523;28;20020;-78
2022/01/28 10:55:15;;;;;;;;;;;;;;;5.49;65.79;102484.28;4993450;28;19968;-78
2022/01/28 10:58:19;;;;;;;;;;;;;;;5.49;65.25;102488.63;4986627;28;20260;-80
2022/01/28 11:01:24;;;;;;;;;;;;;;;5.69;64.93;102486.88;5013162;28;20447;-78
2022/01/28 11:04:28;;;;;;;;;;;;;;;5.53;65.07;102488.63;5011956;28;19921;-78
2022/01/28 11:07:32;;;;;;;;;;;;;;;5.70;65.07;102493.78;5012272;28;20289;-79
2022/01/28 11:10:35;;;;;;;;;;;;;;;5.57;64.19;102484.28;4999999;28;20303;-79
2022/01/28 11:13:38;;;;;;;;;;;;;;;5.83;64.26;102485.13;4970597;28;19921;-78
2022/01/28 11:16:42;;;;;;;;;;;;;;;5.80;63.71;102479.94;4993165;28;19921;-78
2022/01/28 11:19:47;;;;;;;;;;;;;;;5.78;63.57;102467.84;4992822;28;19976;-80
2022/01/28 11:22:56;;;;;;;;;;;;;;;5.78;63.79;102460.06;4970189;28;19921;-80
2022/01/28 11:26:04;;;;;;;;;;;;;;;5.98;63.37;102454.84;5001578;28;19920;-80
2022/01/28 11:29:19;;;;;;;;;;;;;;;5.81;61.80;102455.72;5000761;28;19948;-78
2022/01/28 11:32:23;;;;;;;;;;;;;;;5.93;60.95;102465.22;5001003;28;19924;-78
2022/01/28 11:35:29;;;;;;;;;;;;;;;6.08;61.03;102466.94;5012823;28;19921;-77
2022/01/28 11:38:35;;;;;;;;;;;;;;;6.02;60.67;102474.75;4980917;28;19972;-75
2022/01/28 11:41:58;;;;;;;;;;;;;;;6.20;60.76;102459.13;5012320;28;19971;-80
2022/01/28 11:45:04;;;;;;;;;;;;;;;5.86;61.74;102467.81;4987798;28;19920;-81
2022/01/28 11:48:07;;;;;;;;;;;;;;;6.09;61.94;102463.47;5013122;28;19967;-79
2022/01/28 11:51:14;;;;;;;;;;;;;;;6.38;62.07;102460.81;4989341;28;20002;-76
2022/01/28 11:54:19;;;;;;;;;;;;;;;6.31;61.77;102466.00;4999164;28;20479;-76
2022/01/28 11:57:26;;;;;;;;;;;;;;;6.23;61.38;102464.31;5011417;28;20419;-77
2022/01/28 12:00:30;;;;;;;;;;;;;;;6.21;62.21;102465.19;5012048;28;20380;-77
2022/01/28 12:03:34;;;;;;;;;;;;;;;6.42;62.23;102472.03;4999054;28;19940;-77
2022/01/28 12:06:38;;;;;;;;;;;;;;;6.10;62.08;102475.59;4988529;28;19921;-79
2022/01/28 12:10:09;;;;;;;;;;;;;;;6.15;62.85;102473.84;5009515;28;20345;-87
2022/01/28 12:13:16;;;;;;;;;;;;;;;6.11;62.49;102469.53;5005533;28;21354;-85
2022/01/28 12:16:26;;;;;;;;;;;;;;;6.05;63.62;102474.75;4979493;28;19972;-84
2022/01/28 12:19:31;;;;;;;;;;;;;;;5.99;63.91;102472.16;4971362;28;19926;-84
2022/01/28 12:22:34;;;;;;;;;;;;;;;6.12;63.52;102479.03;4975416;28;19972;-85
2022/01/28 12:25:41;;;;;;;;;;;;;;;6.06;63.47;102471.25;4979345;28;19920;-84
2022/01/28 12:28:49;;;;;;;;;;;;;;;6.01;63.60;102458.31;4992086;28;20072;-84
2022/01/28 12:31:59;;;;;;;;;;;;;;;6.14;63.30;102456.53;4991428;28;20265;-84
2022/01/28 12:35:03;;;;;;;;;;;;;;;6.07;64.02;102457.44;4979048;28;19920;-84
2022/01/28 12:38:06;;;;;;;;;;;;;;;6.17;64.04;102451.34;4977912;28;19920;-84
2022/01/28 12:41:15;;;;;;;;;;;;;;;6.50;63.35;102446.88;5001972;28;19940;-84
2022/01/28 12:44:19;;;;;;;;;;;;;;;6.56;62.55;102439.06;4991225;28;19983;-84
2022/01/28 12:47:24;;;;;;;;;;;;;;;6.43;62.62;102443.44;4988540;28;20434;-87
2022/01/28 12:50:32;;;;;;;;;;;;;;;6.52;62.60;102427.81;4991427;28;20023;-87
2022/01/28 12:53:40;;;;;;;;;;;;;;;6.77;61.51;102429.41;4979884;28;19936;-86
2022/01/28 12:56:43;;;;;;;;;;;;;;;6.83;60.75;102429.34;4989755;28;19968;-82
2022/01/28 12:59:48;;;;;;;;;;;;;;;6.81;59.18;102433.72;4990265;28;19982;-82
2022/01/28 13:02:52;;;;;;;;;;;;;;;6.70;60.32;102421.66;4990466;28;19920;-82
2022/01/28 13:06:02;;;;;;;;;;;;;;;6.58;60.91;102413.94;4989993;28;19921;-80
2022/01/28 13:09:18;;;;;;;;;;;;;;;6.57;60.30;102432.97;4991025;28;19972;-82
2022/01/28 13:12:24;;;;;;;;;;;;;;;6.58;60.78;102426.06;4977562;28;19937;-81
2022/01/28 13:15:27;;;;;;;;;;;;;;;6.73;60.17;102433.75;4970785;28;19924;-81
2022/01/28 13:18:37;;;;;;;;;;;;;;;6.62;60.05;102431.22;4959650;28;20026;-81
2022/01/28 13:21:42;;;;;;;;;;;;;;;6.71;60.13;102423.38;4989311;28;19924;-81
2022/01/28 13:24:50;;;;;;;;;;;;;;;6.56;59.87;102426.06;4968165;28;19969;-81
2022/01/28 13:27:59;;;;;;;;;;;;;;;6.73;59.90;102418.16;4979102;28;19936;-80
2022/01/28 13:31:02;;;;;;;;;;;;;;;6.94;59.92;102418.03;4979574;28;20298;-80
2022/01/28 13:34:09;;;;;;;;;;;;;;;7.12;58.50;102422.25;4991246;28;19979;-79
2022/01/28 13:37:30;;;;;;;;;;;;;;;6.89;58.93;102424.13;4989547;28;20344;-80
2022/01/28 13:40:34;;;;;;;;;;;;;;;6.89;58.26;102427.63;4990632;28;19924;-80
2022/01/28 13:43:40;;;;;;;;;;;;;;;6.86;58.52;102434.53;4990163;28;19921;-80
2022/01/28 13:46:48;;;;;;;;;;;;;;;6.96;58.76;102425.84;4989581;28;19920;-80
2022/01/28 13:49:58;;;;;;;;;;;;;;;6.82;58.86;102422.44;4989700;28;19916;-80
2022/01/28 13:53:08;;;;;;;;;;;;;;;6.88;58.86;102409.41;4979112;28;19921;-80
2022/01/28 13:56:12;;;;;;;;;;;;;;;6.82;59.11;102412.03;4978793;28;19956;-80
2022/01/28 13:59:25;;;;;;;;;;;;;;;6.67;58.87;102406.06;4972509;28;20404;-81
2022/01/28 14:02:28;;;;;;;;;;;;;;;6.61;59.39;102413.06;4961597;28;20004;-80
2022/01/28 14:06:07;;;;;;;;;;;;;;;6.54;60.23;102407.03;4970373;28;19929;-80
2022/01/28 14:09:17;;;;;;;;;;;;;;;6.47;59.88;102402.72;4902658;28;20033;-80
2022/01/28 14:12:22;;;;;;;;;;;;;;;6.51;59.04;102397.50;4971597;28;20017;-80
2022/01/28 14:15:38;;;;;;;;;;;;;;;6.87;58.98;102394.69;4971042;28;19928;-78
2022/01/28 14:18:41;;;;;;;;;;;;;;;6.96;58.24;102403.28;4998635;28;20940;-79
2022/01/28 14:21:45;;;;;;;;;;;;;;;7.17;58.78;102404.84;4977084;28;19954;-78
2022/01/28 14:24:48;;;;;;;;;;;;;;;7.11;58.57;102407.47;4979588;28;20007;-78
2022/01/28 14:28:23;;;;;;;;;;;;;;;7.14;59.27;102410.06;4984304;28;19925;-78
2022/01/28 14:31:24;;;;;;;;;;;;;;;7.15;58.85;102411.81;4975515;28;20016;-77
2022/01/28 14:34:28;;;;;;;;;;;;;;;7.05;58.16;102404.97;4642289;28;10001574;-83
2022/01/28 14:37:37;;;;;;;;;;;;;;;7.06;58.38;102406.69;4985588;28;20508;-81
2022/01/28 14:40:41;;;;;;;;;;;;;;;7.13;56.94;102397.94;4987938;28;20424;-82
2022/01/28 14:43:44;;;;;;;;;;;;;;;6.70;57.02;102393.06;4975181;28;20336;-83
2022/01/28 14:46:48;;;;;;;;;;;;;;;6.64;57.45;102400.03;4986930;28;19921;-85
2022/01/28 14:49:52;;;;;;;;;;;;;;;6.53;57.55;102405.28;4988029;28;19924;-84
2022/01/28 14:52:55;;;;;;;;;;;;;;;6.42;58.22;102415.72;4976091;28;19928;-84
2022/01/28 14:55:59;;;;;;;;;;;;;;;6.61;59.15;102418.25;4988520;28;20001;-84
2022/01/28 14:59:02;;;;;;;;;;;;;;;6.92;58.31;102418.91;4989274;28;20015;-82
2022/01/28 15:02:07;;;;;;;;;;;;;;;6.65;58.38;102426.00;4989267;28;19949;-78
2022/01/28 15:05:14;;;;;;;;;;;;;;;6.68;58.88;102428.59;4608435;28;10000598;-81
2022/01/28 15:08:26;;;;;;;;;;;;;;;6.48;58.37;102426.09;4628524;28;10000575;-81
2022/01/28 15:11:44;;;;;;;;;;;;;;;6.40;57.83;102425.25;4971085;28;19929;-81
2022/01/28 15:14:51;;;;;;;;;;;;;;;6.43;58.82;102434.78;4981490;28;20277;-81
2022/01/28 15:17:54;;;;;;;;;;;;;;;6.44;58.99;102432.16;4993282;28;20515;-81
2022/01/28 15:20:58;;;;;;;;;;;;;;;6.52;58.92;102439.94;4973151;28;19929;-80
2022/01/28 15:24:02;;;;;;;;;;;;;;;6.60;59.77;102437.28;4971364;28;19921;-80
2022/01/28 15:27:06;;;;;;;;;;;;;;;6.50;59.31;102436.47;4972270;28;19925;-77
2022/01/28 15:30:27;;;;;;;;;;;;;;;6.39;59.54;102440.88;4979457;28;19952;-83
2022/01/28 15:36:53;;;;;;;;;;;;;;;6.51;60.45;102440.81;4972933;28;20416;-78
2022/01/28 15:39:57;;;;;;;;;;;;;;;6.42;60.64;102446.06;4961271;28;19941;-77
2022/01/28 15:43:00;;;;;;;;;;;;;;;6.53;61.53;102444.25;4977930;28;20038;-77
2022/01/28 15:46:05;;;;;;;;;;;;;;;6.54;61.96;102448.59;4982264;28;20298;-78
2022/01/28 15:49:08;;;;;;;;;;;;;;;6.47;62.34;102454.69;4961680;28;19936;-79
2022/01/28 15:52:12;;;;;;;;;;;;;;;6.44;62.95;102452.09;4972111;28;20281;-80
2022/01/28 15:55:16;;;;;;;;;;;;;;;6.37;64.20;102453.00;4961622;28;20261;-78
2022/01/28 15:58:19;;;;;;;;;;;;;;;6.20;65.41;102453.06;4974613;28;19964;-84
2022/01/28 16:01:24;;;;;;;;;;;;;;;6.13;65.93;102447.03;4979832;28;19960;-80
2022/01/28 16:04:28;;;;;;;;;;;;;;;6.08;66.59;102464.34;4960505;28;19921;-82
2022/01/28 16:07:34;;;;;;;;;;;;;;;5.92;67.12;102462.63;4983557;28;19924;-80
2022/01/28 16:10:51;;;;;;;;;;;;;;;5.82;67.80;102467.81;4991699;28;19937;-80
2022/01/28 16:14:14;;;;;;;;;;;;;;;5.64;68.42;102475.63;4990145;28;19976;-82
2022/01/28 16:17:29;;;;;;;;;;;;;;;5.64;69.04;102480.81;4991507;28;19969;-78
2022/01/28 16:20:33;;;;;;;;;;;;;;;5.56;68.90;102480.84;4990914;28;20028;-78
2022/01/28 16:23:36;;;;;;;;;;;;;;;5.47;69.13;102485.16;4991412;28;19969;-82
2022/01/28 16:26:39;;;;;;;;;;;;;;;5.45;69.59;102481.69;4979948;28;19920;-82
2022/01/28 16:29:45;;;;;;;;;;;;;;;5.16;69.38;102474.75;4980405;28;20503;-77
2022/01/28 16:32:50;;;;;;;;;;;;;;;5.14;70.10;102471.31;4979109;28;19952;-79
2022/01/28 16:35:53;;;;;;;;;;;;;;;5.14;69.74;102476.50;4980092;28;20324;-79
2022/01/28 16:38:56;;;;;;;;;;;;;;;5.01;69.88;102487.66;4960062;28;20373;-80
2022/01/28 16:42:02;;;;;;;;;;;;;;;4.76;70.22;102482.44;4971974;28;19921;-77
2022/01/28 16:45:07;;;;;;;;;;;;;;;4.69;71.08;102483.28;4959325;28;19929;-81
2022/01/28 16:48:11;;;;;;;;;;;;;;;4.60;70.78;102485.84;4972004;28;19969;-79
2022/01/28 16:51:15;;;;;;;;;;;;;;;4.34;71.80;102490.88;5010341;28;19921;-79
2022/01/28 16:54:18;;;;;;;;;;;;;;;4.33;72.44;102487.44;4982557;28;20109;-80
2022/01/28 16:57:21;;;;;;;;;;;;;;;4.29;72.04;102487.44;4970344;28;20001;-80
2022/01/28 17:00:26;;;;;;;;;;;;;;;4.23;72.50;102497.75;4959528;28;19941;-81
2022/01/28 17:03:31;;;;;;;;;;;;;;;4.26;72.63;102497.78;4970895;28;19921;-80
2022/01/28 17:06:35;;;;;;;;;;;;;;;4.15;72.16;102492.53;4971627;28;20458;-81
2022/01/28 17:09:49;;;;;;;;;;;;;;;4.18;72.51;102495.16;4984576;28;19924;-77
2022/01/28 17:12:53;;;;;;;;;;;;;;;4.21;73.01;102497.72;4988827;28;19936;-78
2022/01/28 17:15:59;;;;;;;;;;;;;;;4.17;72.73;102503.75;4987696;28;19971;-81
2022/01/28 17:19:04;;;;;;;;;;;;;;;4.17;72.63;102507.19;4989524;28;19973;-80
2022/01/28 17:22:07;;;;;;;;;;;;;;;4.15;73.22;102505.47;4990565;28;19925;-77
2022/01/28 17:25:13;;;;;;;;;;;;;;;4.22;72.84;102507.25;4968935;28;19949;-78
2022/01/28 17:28:17;;;;;;;;;;;;;;;4.16;72.54;102507.22;4970223;28;20305;-76
2022/01/28 17:31:20;;;;;;;;;;;;;;;4.15;72.78;102497.72;4969233;28;19925;-82
2022/01/28 17:34:24;;;;;;;;;;;;;;;3.86;73.39;102487.16;4970993;28;19928;-82
2022/01/28 18:39:11;;;;;;;;;;;;;;;3.46;76.06;102477.38;5002584;28;19979;-68
2022/01/28 18:42:32;;;;;;;;;;;;;;;3.46;75.68;102476.50;4993257;28;19968;-68
2022/01/28 18:46:08;;;;;;;;;;;;;;;3.50;75.85;102473.94;5016408;28;19964;-68
2022/01/28 18:49:11;;;;;;;;;;;;;;;3.59;75.70;102457.66;5017208;28;19920;-68
2022/01/28 18:52:13;;;;;;;;;;;;;;;3.62;75.34;102459.38;5016390;28;20405;-67
2022/01/28 18:55:19;;;;;;;;;;;;;;;3.73;76.23;102461.22;5007322;28;19960;-68